createdAt,value
2017-12-10T00:02:14.212Z,37.00
2017-12-10T00:04:42.234Z,37.00
2017-12-10T00:07:11.073Z,37.10
2017-12-10T00:09:39.137Z,37.10
2017-12-10T00:12:07.297Z,37.10
2017-12-10T00:14:35.381Z,37.00
2017-12-10T00:17:03.452Z,37.10
2017-12-10T00:19:31.526Z,37.70
2017-12-10T00:21:59.604Z,37.00
2017-12-10T00:24:27.670Z,37.00
2017-12-10T00:26:55.742Z,36.90
2017-12-10T00:29:23.797Z,37.00
2017-12-10T00:31:51.866Z,36.90
2017-12-10T00:34:19.986Z,36.90
2017-12-10T00:36:48.070Z,36.90
2017-12-10T00:39:16.024Z,36.80
2017-12-10T00:41:44.106Z,36.70
2017-12-10T00:44:12.210Z,36.80
2017-12-10T00:46:40.285Z,36.70
2017-12-10T00:49:08.365Z,36.70
2017-12-10T00:51:36.484Z,36.60
2017-12-10T00:54:04.529Z,36.50
2017-12-10T00:56:32.613Z,36.50
2017-12-10T00:59:00.734Z,36.40
2017-12-10T01:01:29.499Z,36.40
2017-12-10T01:03:57.569Z,36.40
2017-12-10T01:06:30.244Z,36.40
2017-12-10T01:08:58.763Z,36.40
2017-12-10T01:11:28.060Z,36.30
2017-12-10T01:13:56.971Z,36.20
2017-12-10T01:16:25.072Z,36.20
2017-12-10T01:18:53.146Z,36.20
2017-12-10T01:21:21.275Z,36.20
2017-12-10T01:23:49.413Z,36.20
2017-12-10T01:26:17.491Z,36.10
2017-12-10T01:28:45.589Z,36.10
2017-12-10T01:31:14.537Z,36.60
2017-12-10T01:33:42.577Z,36.00
2017-12-10T01:36:10.700Z,36.00
2017-12-10T01:38:38.793Z,35.90
2017-12-10T01:41:07.653Z,36.00
2017-12-10T01:43:35.768Z,35.90
2017-12-10T01:46:03.874Z,35.90
2017-12-10T01:48:31.965Z,35.70
2017-12-10T01:51:01.010Z,35.70
2017-12-10T01:53:29.741Z,35.70
2017-12-10T01:55:57.821Z,35.70
2017-12-10T01:58:25.983Z,35.60
2017-12-10T02:00:54.097Z,35.60
2017-12-10T02:03:22.868Z,35.50
2017-12-10T02:05:50.949Z,36.00
2017-12-10T02:08:19.821Z,35.50
2017-12-10T02:10:47.780Z,35.50
2017-12-10T02:13:15.868Z,35.50
2017-12-10T02:15:43.954Z,35.40
2017-12-10T02:18:13.374Z,35.40
2017-12-10T02:20:42.248Z,35.40
2017-12-10T02:23:11.103Z,35.30
2017-12-10T02:25:39.260Z,35.30
2017-12-10T02:28:07.469Z,35.20
2017-12-10T02:30:35.557Z,35.20
2017-12-10T02:33:04.429Z,35.10
2017-12-10T02:35:32.511Z,35.10
2017-12-10T02:38:00.616Z,35.00
2017-12-10T02:40:29.703Z,35.00
2017-12-10T02:42:58.562Z,34.80
2017-12-10T02:45:26.943Z,34.90
2017-12-10T02:47:55.132Z,34.90
2017-12-10T02:50:23.999Z,34.80
2017-12-10T02:52:52.729Z,34.80
2017-12-10T02:55:20.816Z,34.70
2017-12-10T02:57:49.844Z,34.70
2017-12-10T03:00:18.897Z,34.60
2017-12-10T03:02:47.008Z,34.50
2017-12-10T03:05:15.132Z,34.50
2017-12-10T03:07:44.715Z,34.30
2017-12-10T03:10:13.367Z,34.30
2017-12-10T03:12:41.463Z,34.30
2017-12-10T03:15:09.569Z,34.30
2017-12-10T03:17:39.345Z,34.10
2017-12-10T03:20:08.694Z,34.10
2017-12-10T03:22:37.112Z,34.70
2017-12-10T03:25:05.437Z,34.00
2017-12-10T03:27:34.984Z,33.90
2017-12-10T03:30:03.823Z,33.90
2017-12-10T03:32:33.232Z,33.80
2017-12-10T03:35:02.079Z,33.80
2017-12-10T03:37:30.190Z,33.70
2017-12-10T03:39:59.949Z,33.70
2017-12-10T03:42:28.791Z,33.70
2017-12-10T03:44:57.669Z,33.70
2017-12-10T03:47:25.780Z,33.60
2017-12-10T03:49:54.713Z,33.70
2017-12-10T03:52:22.786Z,33.70
2017-12-10T03:54:51.732Z,33.60
2017-12-10T03:57:19.827Z,33.60
2017-12-10T03:59:47.873Z,33.50
2017-12-10T04:02:15.992Z,33.40
2017-12-10T04:04:44.797Z,33.40
2017-12-10T04:07:13.774Z,33.40
2017-12-10T04:09:42.734Z,33.40
2017-12-10T04:12:10.796Z,33.30
2017-12-10T04:14:38.884Z,33.40
2017-12-10T04:17:07.973Z,33.30
2017-12-10T04:19:36.065Z,33.30
2017-12-10T04:22:04.202Z,33.20
2017-12-10T04:24:32.279Z,33.30
2017-12-10T04:27:00.353Z,33.20
2017-12-10T04:29:28.456Z,33.20
2017-12-10T04:31:56.544Z,33.10
2017-12-10T04:34:24.636Z,33.10
2017-12-10T04:36:52.736Z,33.10
2017-12-10T04:39:20.802Z,33.20
2017-12-10T04:41:48.904Z,33.10
2017-12-10T04:44:17.230Z,33.10
2017-12-10T04:46:45.348Z,33.10
2017-12-10T04:49:13.476Z,33.10
2017-12-10T04:51:41.578Z,32.90
2017-12-10T04:54:09.637Z,33.00
2017-12-10T04:56:38.479Z,33.10
2017-12-10T04:59:06.593Z,33.20
2017-12-10T05:01:35.401Z,33.10
2017-12-10T05:04:03.508Z,33.10
2017-12-10T05:06:31.592Z,33.70
2017-12-10T05:08:59.641Z,33.00
2017-12-10T05:11:27.717Z,33.00
2017-12-10T05:13:56.741Z,33.00
2017-12-10T05:16:25.664Z,33.00
2017-12-10T05:18:54.512Z,33.20
2017-12-10T05:21:22.562Z,33.20
2017-12-10T05:23:50.631Z,33.20
2017-12-10T05:26:18.695Z,33.20
2017-12-10T05:28:46.770Z,33.20
2017-12-10T05:31:14.902Z,33.30
2017-12-10T05:33:43.748Z,33.20
2017-12-10T05:36:11.821Z,33.20
2017-12-10T05:38:40.180Z,33.20
2017-12-10T05:41:08.471Z,33.20
2017-12-10T05:43:36.811Z,33.10
2017-12-10T05:46:06.646Z,33.20
2017-12-10T05:48:34.702Z,33.10
2017-12-10T05:51:02.808Z,33.10
2017-12-10T05:53:31.025Z,33.10
2017-12-10T05:55:59.869Z,33.00
2017-12-10T05:58:28.794Z,33.00
2017-12-10T06:00:56.891Z,33.00
2017-12-10T06:03:24.945Z,33.00
2017-12-10T06:05:53.148Z,33.10
2017-12-10T06:08:21.246Z,33.10
2017-12-10T06:10:49.436Z,33.10
2017-12-10T06:13:17.637Z,33.00
2017-12-10T06:15:45.790Z,33.00
2017-12-10T06:18:14.800Z,33.00
2017-12-10T06:20:42.918Z,33.00
2017-12-10T06:23:11.102Z,32.90
2017-12-10T06:25:39.201Z,32.80
2017-12-10T06:28:07.950Z,32.70
2017-12-10T06:30:36.046Z,32.70
2017-12-10T06:33:04.113Z,32.60
2017-12-10T06:35:33.182Z,32.60
2017-12-10T06:38:01.550Z,32.60
2017-12-10T06:40:29.653Z,32.70
2017-12-10T06:42:58.566Z,32.60
2017-12-10T06:45:26.681Z,32.50
2017-12-10T06:47:55.888Z,32.50
2017-12-10T06:50:25.140Z,32.40
2017-12-10T06:52:53.214Z,32.50
2017-12-10T06:55:21.276Z,32.40
2017-12-10T06:57:50.365Z,32.60
2017-12-10T07:00:18.469Z,32.50
2017-12-10T07:02:46.527Z,32.60
2017-12-10T07:05:14.602Z,32.50
2017-12-10T07:07:42.640Z,32.60
2017-12-10T07:10:10.723Z,32.50
2017-12-10T07:12:38.811Z,32.60
2017-12-10T07:15:06.897Z,32.50
2017-12-10T07:17:34.978Z,32.50
2017-12-10T07:20:03.313Z,32.50
2017-12-10T07:22:31.380Z,32.50
2017-12-10T07:24:59.505Z,32.60
2017-12-10T07:27:28.481Z,32.60
2017-12-10T07:29:57.358Z,32.80
2017-12-10T07:32:25.451Z,32.80
2017-12-10T07:34:53.567Z,32.80
2017-12-10T07:37:21.661Z,32.70
2017-12-10T07:39:49.745Z,32.80
2017-12-10T07:42:18.413Z,32.80
2017-12-10T07:44:46.880Z,32.70
2017-12-10T07:47:15.789Z,32.70
2017-12-10T07:49:44.657Z,32.80
2017-12-10T07:52:13.043Z,32.80
2017-12-10T07:54:42.045Z,32.80
2017-12-10T07:57:10.149Z,32.90
2017-12-10T07:59:38.193Z,32.90
2017-12-10T08:02:06.291Z,33.10
2017-12-10T08:04:34.444Z,33.10
2017-12-10T08:07:02.555Z,33.30
2017-12-10T08:09:30.697Z,33.30
2017-12-10T08:11:59.690Z,33.30
2017-12-10T08:14:27.854Z,33.30
2017-12-10T08:16:55.913Z,33.30
2017-12-10T08:19:23.996Z,33.20
2017-12-10T08:21:52.090Z,33.20
2017-12-10T08:24:20.192Z,33.20
2017-12-10T08:26:49.088Z,33.20
2017-12-10T08:29:17.905Z,33.30
2017-12-10T08:31:45.935Z,33.30
2017-12-10T08:34:14.093Z,33.30
2017-12-10T08:36:42.192Z,32.40
2017-12-10T08:39:11.050Z,32.30
2017-12-10T08:41:39.133Z,32.30
2017-12-10T08:44:07.244Z,32.40
2017-12-10T08:46:35.369Z,32.40
2017-12-10T08:49:03.475Z,32.30
2017-12-10T08:51:32.325Z,32.30
2017-12-10T08:54:00.428Z,32.20
2017-12-10T08:56:29.305Z,32.10
2017-12-10T08:58:57.409Z,32.10
2017-12-10T09:01:26.289Z,32.00
2017-12-10T09:03:55.098Z,32.10
2017-12-10T09:06:23.186Z,32.00
2017-12-10T09:08:51.242Z,32.00
2017-12-10T09:11:19.359Z,32.00
2017-12-10T09:13:47.429Z,32.20
2017-12-10T09:16:15.556Z,32.20
2017-12-10T09:18:43.676Z,32.30
2017-12-10T09:21:11.758Z,32.40
2017-12-10T09:23:39.828Z,32.30
2017-12-10T09:26:07.921Z,32.30
2017-12-10T09:28:36.782Z,32.40
2017-12-10T09:31:04.866Z,32.20
2017-12-10T09:33:33.439Z,32.10
2017-12-10T09:36:01.516Z,32.20
2017-12-10T09:38:29.603Z,32.20
2017-12-10T09:40:57.701Z,32.10
2017-12-10T09:43:26.551Z,32.20
2017-12-10T09:45:54.637Z,32.10
2017-12-10T09:48:22.837Z,32.20
2017-12-10T09:50:50.968Z,32.20
2017-12-10T09:53:19.053Z,32.20
2017-12-10T09:55:47.153Z,32.20
2017-12-10T09:58:16.064Z,32.20
2017-12-10T10:00:44.146Z,32.20
2017-12-10T10:03:12.256Z,32.30
2017-12-10T10:05:40.330Z,32.40
2017-12-10T10:08:08.437Z,32.50
2017-12-10T10:10:37.298Z,32.60
2017-12-10T10:13:05.724Z,32.50
2017-12-10T10:15:34.282Z,32.60
2017-12-10T10:18:03.229Z,32.80
2017-12-10T10:20:32.209Z,32.80
2017-12-10T10:23:00.337Z,32.90
2017-12-10T10:25:29.198Z,33.00
2017-12-10T10:27:57.311Z,33.00
2017-12-10T10:30:26.414Z,33.00
2017-12-10T10:32:54.531Z,33.10
2017-12-10T10:35:22.612Z,33.30
2017-12-10T10:37:50.749Z,33.40
2017-12-10T10:40:18.861Z,33.60
2017-12-10T10:42:46.991Z,33.70
2017-12-10T10:45:15.096Z,33.80
2017-12-10T10:47:43.226Z,33.90
2017-12-10T10:50:12.130Z,34.20
2017-12-10T10:52:40.225Z,34.20
2017-12-10T10:55:09.251Z,34.40
2017-12-10T10:57:38.426Z,34.40
2017-12-10T11:00:06.540Z,34.50
2017-12-10T11:02:35.433Z,34.70
2017-12-10T11:05:04.306Z,34.80
2017-12-10T11:07:32.408Z,34.80
2017-12-10T11:10:00.552Z,34.80
2017-12-10T11:12:28.626Z,35.00
2017-12-10T11:14:57.829Z,35.20
2017-12-10T11:17:26.729Z,35.50
2017-12-10T11:19:55.605Z,35.60
2017-12-10T11:22:25.075Z,36.20
2017-12-10T11:24:56.161Z,35.70
2017-12-10T11:27:25.037Z,36.00
2017-12-10T11:29:53.133Z,36.00
2017-12-10T11:32:24.261Z,36.30
2017-12-10T11:34:52.353Z,36.30
2017-12-10T11:37:22.037Z,36.60
2017-12-10T11:39:50.507Z,36.70
2017-12-10T11:42:18.649Z,36.80
2017-12-10T11:44:46.720Z,36.80
2017-12-10T11:47:14.821Z,36.80
2017-12-10T11:49:42.894Z,36.90
2017-12-10T11:52:11.776Z,37.00
2017-12-10T11:54:40.757Z,37.50
2017-12-10T11:57:09.616Z,37.50
2017-12-10T11:59:38.547Z,37.60
2017-12-10T12:02:06.653Z,37.60
2017-12-10T12:04:35.502Z,37.80
2017-12-10T12:07:04.337Z,37.80
2017-12-10T12:09:33.226Z,38.00
2017-12-10T12:12:02.378Z,38.00
2017-12-10T12:14:30.965Z,38.00
2017-12-10T12:16:59.965Z,38.10
2017-12-10T12:19:28.062Z,38.10
2017-12-10T12:21:57.214Z,38.20
2017-12-10T12:24:26.133Z,38.20
2017-12-10T12:26:54.352Z,38.40
2017-12-10T12:29:23.218Z,38.50
2017-12-10T12:31:51.404Z,38.50
2017-12-10T12:34:20.266Z,38.70
2017-12-10T12:36:48.597Z,38.70
2017-12-10T12:39:16.658Z,38.90
2017-12-10T12:41:44.777Z,39.00
2017-12-10T12:44:12.842Z,39.10
2017-12-10T12:46:40.968Z,39.20
2017-12-10T12:49:10.742Z,39.20
2017-12-10T12:51:38.817Z,39.20
2017-12-10T12:54:07.152Z,39.30
2017-12-10T12:56:35.865Z,39.30
2017-12-10T12:59:03.997Z,39.30
2017-12-10T13:01:32.120Z,39.30
2017-12-10T13:04:00.210Z,39.40
2017-12-10T13:06:28.341Z,39.40
2017-12-10T13:08:57.206Z,39.50
2017-12-10T13:11:25.351Z,39.60
2017-12-10T13:13:53.477Z,39.60
2017-12-10T13:16:22.442Z,39.70
2017-12-10T13:18:50.801Z,39.70
2017-12-10T13:21:18.965Z,39.60
2017-12-10T13:23:47.729Z,39.70
2017-12-10T13:26:16.029Z,39.70
2017-12-10T13:28:44.117Z,39.70
2017-12-10T13:31:12.993Z,39.70
2017-12-10T13:33:41.085Z,39.70
2017-12-10T13:36:09.917Z,39.60
2017-12-10T13:38:38.030Z,39.60
2017-12-10T13:41:06.141Z,39.60
2017-12-10T13:43:34.222Z,39.70
2017-12-10T13:46:02.362Z,39.80
2017-12-10T13:48:32.143Z,39.90
2017-12-10T13:51:00.263Z,39.90
2017-12-10T13:53:28.731Z,40.00
2017-12-10T13:55:57.537Z,39.90
2017-12-10T13:58:25.723Z,39.90
2017-12-10T14:00:53.801Z,39.90
2017-12-10T14:03:21.903Z,40.00
2017-12-10T14:05:50.030Z,40.00
2017-12-10T14:08:18.275Z,39.90
2017-12-10T14:10:47.161Z,40.10
2017-12-10T14:13:15.339Z,40.10
2017-12-10T14:15:44.258Z,40.00
2017-12-10T14:18:12.389Z,40.10
2017-12-10T14:20:40.737Z,40.10
2017-12-10T14:23:09.565Z,40.00
2017-12-10T14:25:38.005Z,39.80
2017-12-10T14:28:06.227Z,39.70
2017-12-10T14:30:35.968Z,39.60
2017-12-10T14:33:04.081Z,39.60
2017-12-10T14:35:32.140Z,39.60
2017-12-10T14:38:01.046Z,40.40
2017-12-10T14:40:29.670Z,40.50
2017-12-10T14:42:59.409Z,41.00
2017-12-10T14:45:27.529Z,40.50
2017-12-10T14:47:56.441Z,40.40
2017-12-10T14:50:26.258Z,40.40
2017-12-10T14:52:55.406Z,40.30
2017-12-10T14:55:23.498Z,40.40
2017-12-10T14:57:52.510Z,40.40
2017-12-10T15:00:21.388Z,40.20
2017-12-10T15:02:49.548Z,40.30
2017-12-10T15:05:17.645Z,41.00
2017-12-10T15:07:47.362Z,40.50
2017-12-10T15:10:16.238Z,40.40
2017-12-10T15:12:44.457Z,40.40
2017-12-10T15:15:12.520Z,40.50
2017-12-10T15:17:42.641Z,40.50
2017-12-10T15:20:10.765Z,40.60
2017-12-10T15:22:38.856Z,40.50
2017-12-10T15:25:07.015Z,40.60
2017-12-10T15:27:35.201Z,40.60
2017-12-10T15:30:03.605Z,40.60
2017-12-10T15:32:32.465Z,40.60
2017-12-10T15:35:00.557Z,40.60
2017-12-10T15:37:30.536Z,40.50
2017-12-10T15:39:58.710Z,40.50
2017-12-10T15:42:26.818Z,40.60
2017-12-10T15:44:55.728Z,40.70
2017-12-10T15:47:23.809Z,40.70
2017-12-10T15:49:51.870Z,40.70
2017-12-10T15:52:21.093Z,40.70
2017-12-10T15:54:49.238Z,40.80
2017-12-10T15:57:18.197Z,40.80
2017-12-10T15:59:46.279Z,40.90
2017-12-10T16:02:14.412Z,40.90
2017-12-10T16:04:42.446Z,41.00
2017-12-10T16:07:11.365Z,41.10
2017-12-10T16:09:40.052Z,41.10
2017-12-10T16:12:08.802Z,41.10
2017-12-10T16:14:37.209Z,41.10
2017-12-10T16:17:05.325Z,41.20
2017-12-10T16:19:33.445Z,41.30
2017-12-10T16:22:01.525Z,41.40
2017-12-10T16:24:29.622Z,41.40
2017-12-10T16:26:57.694Z,41.30
2017-12-10T16:29:25.856Z,41.40
2017-12-10T16:31:53.954Z,41.50
2017-12-10T16:34:22.039Z,41.50
2017-12-10T16:36:50.148Z,41.60
2017-12-10T16:39:19.897Z,41.50
2017-12-10T16:41:48.010Z,41.60
2017-12-10T16:44:16.865Z,41.70
2017-12-10T16:46:46.676Z,41.70
2017-12-10T16:49:14.816Z,41.90
2017-12-10T16:51:44.533Z,42.00
2017-12-10T16:54:12.628Z,42.00
2017-12-10T16:56:40.728Z,42.10
2017-12-10T16:59:09.478Z,42.20
2017-12-10T17:01:37.563Z,42.00
2017-12-10T17:04:05.689Z,42.10
2017-12-10T17:06:34.590Z,42.10
2017-12-10T17:09:03.513Z,42.20
2017-12-10T17:11:31.633Z,42.20
2017-12-10T17:14:00.158Z,42.30
2017-12-10T17:16:28.291Z,42.40
2017-12-10T17:18:57.410Z,42.40
2017-12-10T17:21:26.621Z,42.40
2017-12-10T17:23:54.749Z,42.50
2017-12-10T17:26:23.778Z,42.50
2017-12-10T17:28:51.945Z,42.50
2017-12-10T17:31:20.040Z,42.50
2017-12-10T17:33:49.015Z,42.50
2017-12-10T17:36:17.570Z,42.60
2017-12-10T17:38:45.681Z,42.70
2017-12-10T17:41:13.805Z,42.80
2017-12-10T17:43:41.958Z,42.80
2017-12-10T17:46:12.460Z,42.90
2017-12-10T17:48:41.409Z,43.00
2017-12-10T17:51:10.722Z,43.00
2017-12-10T17:53:39.604Z,43.20
2017-12-10T17:56:08.066Z,43.20
2017-12-10T17:58:36.156Z,43.30
2017-12-10T18:01:04.495Z,43.40
2017-12-10T18:03:32.605Z,43.40
2017-12-10T18:06:00.747Z,43.60
2017-12-10T18:08:29.673Z,43.60
2017-12-10T18:10:57.796Z,43.80
2017-12-10T18:13:25.908Z,43.80
2017-12-10T18:15:53.976Z,44.00
2017-12-10T18:18:22.094Z,44.10
2017-12-10T18:20:50.195Z,44.10
2017-12-10T18:23:18.309Z,44.20
2017-12-10T18:25:46.385Z,44.30
2017-12-10T18:28:15.241Z,44.50
2017-12-10T18:30:43.402Z,44.50
2017-12-10T18:33:12.432Z,44.60
2017-12-10T18:35:40.993Z,44.70
2017-12-10T18:38:10.070Z,44.70
2017-12-10T18:40:38.212Z,44.80
2017-12-10T18:43:06.320Z,45.00
2017-12-10T18:45:34.442Z,45.10
2017-12-10T18:48:03.311Z,45.30
2017-12-10T18:50:31.727Z,45.30
2017-12-10T18:53:00.906Z,45.40
2017-12-10T18:55:30.023Z,45.40
2017-12-10T18:57:58.656Z,46.00
2017-12-10T19:00:26.751Z,45.40
2017-12-10T19:02:55.697Z,45.50
2017-12-10T19:05:23.779Z,45.70
2017-12-10T19:07:51.889Z,45.70
2017-12-10T19:10:20.381Z,45.70
2017-12-10T19:12:49.245Z,45.80
2017-12-10T19:15:17.321Z,45.80
2017-12-10T19:17:45.413Z,45.90
2017-12-10T19:20:14.310Z,46.00
2017-12-10T19:22:44.178Z,46.10
2017-12-10T19:25:12.283Z,46.10
2017-12-10T19:27:40.368Z,46.10
2017-12-10T19:30:09.258Z,46.20
2017-12-10T19:32:39.122Z,46.20
2017-12-10T19:35:07.222Z,46.30
2017-12-10T19:37:35.450Z,46.30
2017-12-10T19:40:04.510Z,46.30
2017-12-10T19:42:33.417Z,46.40
2017-12-10T19:45:02.467Z,46.50
2017-12-10T19:47:30.533Z,46.50
2017-12-10T19:49:58.666Z,46.50
2017-12-10T19:52:26.719Z,46.60
2017-12-10T19:54:55.595Z,46.80
2017-12-10T19:57:23.689Z,46.80
2017-12-10T19:59:52.580Z,46.80
2017-12-10T20:02:20.697Z,46.80
2017-12-10T20:04:48.825Z,46.80
2017-12-10T20:07:17.879Z,46.90
2017-12-10T20:09:46.008Z,46.80
2017-12-10T20:12:14.206Z,46.90
2017-12-10T20:14:42.327Z,46.90
2017-12-10T20:17:11.734Z,47.10
2017-12-10T20:19:40.733Z,47.20
2017-12-10T20:22:09.623Z,47.20
2017-12-10T20:24:39.559Z,47.30
2017-12-10T20:27:08.466Z,47.20
2017-12-10T20:29:36.606Z,47.30
2017-12-10T20:32:05.725Z,47.30
2017-12-10T20:34:33.794Z,47.40
2017-12-10T20:37:02.782Z,47.40
2017-12-10T20:39:30.858Z,47.50
2017-12-10T20:41:59.923Z,47.50
2017-12-10T20:44:28.852Z,47.50
2017-12-10T20:46:57.810Z,47.50
2017-12-10T20:49:26.725Z,47.70
2017-12-10T20:51:54.849Z,47.70
2017-12-10T20:54:23.869Z,47.70
2017-12-10T20:56:53.124Z,47.90
2017-12-10T20:59:21.226Z,48.00
2017-12-10T21:01:49.309Z,48.00
2017-12-10T21:04:18.193Z,48.00
2017-12-10T21:06:46.332Z,48.00
2017-12-10T21:09:14.447Z,48.10
2017-12-10T21:11:43.326Z,48.10
2017-12-10T21:14:11.416Z,48.10
2017-12-10T21:16:40.290Z,48.20
2017-12-10T21:19:09.369Z,48.20
2017-12-10T21:21:37.485Z,48.10
2017-12-10T21:24:05.908Z,48.20
2017-12-10T21:26:34.013Z,48.20
2017-12-10T21:29:02.159Z,48.30
2017-12-10T21:31:30.209Z,48.40
2017-12-10T21:33:58.329Z,48.40
2017-12-10T21:36:26.449Z,48.40
2017-12-10T21:38:54.543Z,48.40
2017-12-10T21:41:22.665Z,48.50
2017-12-10T21:43:51.538Z,48.50
2017-12-10T21:46:19.630Z,48.50
2017-12-10T21:48:48.489Z,48.50
2017-12-10T21:51:16.566Z,48.60
2017-12-10T21:53:44.659Z,48.60
2017-12-10T21:56:13.520Z,48.70
2017-12-10T21:58:41.630Z,48.70
2017-12-10T22:01:10.464Z,48.80
2017-12-10T22:03:38.550Z,48.70
2017-12-10T22:06:06.575Z,48.80
2017-12-10T22:08:34.688Z,48.90
2017-12-10T22:11:02.821Z,48.90
2017-12-10T22:13:30.869Z,48.90
2017-12-10T22:15:59.702Z,48.90
2017-12-10T22:18:27.805Z,48.90
2017-12-10T22:20:55.910Z,48.90
2017-12-10T22:23:24.758Z,49.00
2017-12-10T22:25:52.830Z,48.90
2017-12-10T22:28:20.936Z,49.00
2017-12-10T22:30:49.795Z,49.10
2017-12-10T22:33:17.869Z,49.10
2017-12-10T22:35:46.930Z,49.10
2017-12-10T22:38:15.722Z,49.10
2017-12-10T22:40:43.802Z,49.10
2017-12-10T22:43:12.792Z,49.20
2017-12-10T22:45:40.809Z,49.20
2017-12-10T22:48:08.849Z,49.20
2017-12-10T22:50:36.932Z,49.30
2017-12-10T22:53:06.353Z,49.40
2017-12-10T22:55:35.543Z,49.40
2017-12-10T22:58:03.728Z,49.50
2017-12-10T23:00:33.557Z,49.60
2017-12-10T23:03:02.352Z,49.60
2017-12-10T23:05:31.148Z,49.50
2017-12-10T23:07:59.300Z,49.50
2017-12-10T23:10:29.190Z,49.60
2017-12-10T23:12:58.211Z,49.60
2017-12-10T23:15:27.242Z,49.60
2017-12-10T23:17:56.084Z,49.70
2017-12-10T23:20:27.057Z,49.80
2017-12-10T23:22:56.670Z,49.80
2017-12-10T23:25:26.089Z,49.90
2017-12-10T23:27:55.611Z,49.80
2017-12-10T23:30:23.800Z,49.90
2017-12-10T23:32:52.045Z,50.00
2017-12-10T23:35:20.167Z,49.90
2017-12-10T23:37:48.189Z,49.90
2017-12-10T23:40:16.296Z,50.00
2017-12-10T23:42:45.188Z,50.00
2017-12-10T23:45:13.921Z,50.00
2017-12-10T23:47:58.287Z,50.00
2017-12-10T23:50:27.220Z,50.00
2017-12-10T23:52:55.561Z,50.00
2017-12-10T23:55:24.433Z,50.10
2017-12-10T23:57:52.520Z,50.10
